sensor_id;sensor_type;location;lat;lon;timestamp;temperature;humidity
44047;DHT22;29713;-33.888;151.150;2023-05-01T00:01:40;17.60;99.90
44047;DHT22;29713;-33.888;151.150;2023-05-01T00:04:07;17.70;99.90
44047;DHT22;29713;-33.888;151.150;2023-05-01T00:06:34;17.80;99.90
44047;DHT22;29713;-33.888;151.150;2023-05-01T00:09:02;17.90;99.90
44047;DHT22;29713;-33.888;151.150;2023-05-01T00:11:29;18.00;99.90
44047;DHT22;29713;-33.888;151.150;2023-05-01T00:13:56;18.00;99.90
44047;DHT22;29713;-33.888;151.150;2023-05-01T00:16:27;18.10;99.90
44047;DHT22;29713;-33.888;151.150;2023-05-01T00:18:56;18.10;99.90
44047;DHT22;29713;-33.888;151.150;2023-05-01T00:21:24;18.20;99.90
44047;DHT22;29713;-33.888;151.150;2023-05-01T00:23:51;18.30;99.90
44047;DHT22;29713;-33.888;151.150;2023-05-01T00:26:19;18.50;99.90
44047;DHT22;29713;-33.888;151.150;2023-05-01T00:28:46;18.60;99.90
44047;DHT22;29713;-33.888;151.150;2023-05-01T00:31:14;18.60;99.90
44047;DHT22;29713;-33.888;151.150;2023-05-01T00:33:41;18.60;99.90
44047;DHT22;29713;-33.888;151.150;2023-05-01T00:36:08;18.80;99.90
44047;DHT22;29713;-33.888;151.150;2023-05-01T00:38:36;18.80;99.90
44047;DHT22;29713;-33.888;151.150;2023-05-01T00:41:04;18.90;99.90
44047;DHT22;29713;-33.888;151.150;2023-05-01T00:43:31;19.10;99.90
44047;DHT22;29713;-33.888;151.150;2023-05-01T00:45:59;19.20;99.90
44047;DHT22;29713;-33.888;151.150;2023-05-01T00:48:26;19.20;99.90
44047;DHT22;29713;-33.888;151.150;2023-05-01T00:50:55;19.30;99.90
44047;DHT22;29713;-33.888;151.150;2023-05-01T00:53:23;19.40;99.90
44047;DHT22;29713;-33.888;151.150;2023-05-01T00:55:53;19.40;99.90
44047;DHT22;29713;-33.888;151.150;2023-05-01T00:58:22;19.50;99.90
44047;DHT22;29713;-33.888;151.150;2023-05-01T01:00:49;19.80;99.90
44047;DHT22;29713;-33.888;151.150;2023-05-01T01:03:18;19.70;99.90
44047;DHT22;29713;-33.888;151.150;2023-05-01T01:06:06;19.80;99.90
44047;DHT22;29713;-33.888;151.150;2023-05-01T01:14:25;20.30;99.90
44047;DHT22;29713;-33.888;151.150;2023-05-01T01:16:59;20.40;99.90
44047;DHT22;29713;-33.888;151.150;2023-05-01T01:25:49;20.90;99.90
44047;DHT22;29713;-33.888;151.150;2023-05-01T01:28:44;21.10;99.90
44047;DHT22;29713;-33.888;151.150;2023-05-01T01:34:19;21.40;99.90
44047;DHT22;29713;-33.888;151.150;2023-05-01T01:37:11;21.30;99.90
44047;DHT22;29713;-33.888;151.150;2023-05-01T01:39:53;21.40;99.90
44047;DHT22;29713;-33.888;151.150;2023-05-01T01:42:35;21.60;99.90
44047;DHT22;29713;-33.888;151.150;2023-05-01T01:45:16;21.70;99.90
44047;DHT22;29713;-33.888;151.150;2023-05-01T01:47:45;21.80;99.90
44047;DHT22;29713;-33.888;151.150;2023-05-01T01:50:14;22.10;99.90
44047;DHT22;29713;-33.888;151.150;2023-05-01T01:52:43;22.20;99.90
44047;DHT22;29713;-33.888;151.150;2023-05-01T01:55:12;22.60;99.90
44047;DHT22;29713;-33.888;151.150;2023-05-01T01:57:40;22.90;99.90
44047;DHT22;29713;-33.888;151.150;2023-05-01T02:00:12;23.20;99.90
44047;DHT22;29713;-33.888;151.150;2023-05-01T02:02:40;23.80;99.90
44047;DHT22;29713;-33.888;151.150;2023-05-01T02:05:12;24.20;99.90
44047;DHT22;29713;-33.888;151.150;2023-05-01T02:07:42;24.40;99.90
44047;DHT22;29713;-33.888;151.150;2023-05-01T02:10:12;24.50;99.90
44047;DHT22;29713;-33.888;151.150;2023-05-01T02:12:43;24.60;99.90
44047;DHT22;29713;-33.888;151.150;2023-05-01T02:15:12;24.90;99.90
44047;DHT22;29713;-33.888;151.150;2023-05-01T02:17:41;24.90;99.90
44047;DHT22;29713;-33.888;151.150;2023-05-01T02:20:10;24.90;99.90
44047;DHT22;29713;-33.888;151.150;2023-05-01T02:22:42;25.10;99.90
44047;DHT22;29713;-33.888;151.150;2023-05-01T02:25:11;24.90;99.90
44047;DHT22;29713;-33.888;151.150;2023-05-01T02:28:11;25.20;99.90
44047;DHT22;29713;-33.888;151.150;2023-05-01T02:30:39;25.60;99.90
44047;DHT22;29713;-33.888;151.150;2023-05-01T02:33:07;25.40;99.90
44047;DHT22;29713;-33.888;151.150;2023-05-01T02:35:44;25.20;99.90
44047;DHT22;29713;-33.888;151.150;2023-05-01T02:38:13;25.40;99.90
44047;DHT22;29713;-33.888;151.150;2023-05-01T02:40:44;25.70;99.90
44047;DHT22;29713;-33.888;151.150;2023-05-01T02:43:14;25.90;99.90
44047;DHT22;29713;-33.888;151.150;2023-05-01T02:45:43;25.80;99.90
44047;DHT22;29713;-33.888;151.150;2023-05-01T02:48:12;26.10;99.90
44047;DHT22;29713;-33.888;151.150;2023-05-01T02:50:42;26.20;99.90
44047;DHT22;29713;-33.888;151.150;2023-05-01T02:53:11;26.00;98.90
44047;DHT22;29713;-33.888;151.150;2023-05-01T02:55:42;25.90;99.70
44047;DHT22;29713;-33.888;151.150;2023-05-01T02:58:15;25.80;99.40
44047;DHT22;29713;-33.888;151.150;2023-05-01T03:00:42;25.70;99.90
44047;DHT22;29713;-33.888;151.150;2023-05-01T03:03:11;25.60;99.70
44047;DHT22;29713;-33.888;151.150;2023-05-01T03:05:38;25.60;99.40
44047;DHT22;29713;-33.888;151.150;2023-05-01T03:08:07;25.80;99.40
44047;DHT22;29713;-33.888;151.150;2023-05-01T03:10:35;26.20;97.50
44047;DHT22;29713;-33.888;151.150;2023-05-01T03:13:02;26.50;99.10
44047;DHT22;29713;-33.888;151.150;2023-05-01T03:15:30;26.70;96.80
44047;DHT22;29713;-33.888;151.150;2023-05-01T03:17:57;26.60;95.40
44047;DHT22;29713;-33.888;151.150;2023-05-01T03:20:24;26.20;94.60
44047;DHT22;29713;-33.888;151.150;2023-05-01T03:22:52;26.30;94.30
44047;DHT22;29713;-33.888;151.150;2023-05-01T03:25:19;26.70;94.80
44047;DHT22;29713;-33.888;151.150;2023-05-01T03:27:49;26.90;94.30
44047;DHT22;29713;-33.888;151.150;2023-05-01T03:30:17;26.70;95.10
44047;DHT22;29713;-33.888;151.150;2023-05-01T03:32:45;26.70;95.10
44047;DHT22;29713;-33.888;151.150;2023-05-01T03:35:12;26.70;92.30
44047;DHT22;29713;-33.888;151.150;2023-05-01T03:37:42;26.70;93.00
44047;DHT22;29713;-33.888;151.150;2023-05-01T03:40:10;27.00;93.40
44047;DHT22;29713;-33.888;151.150;2023-05-01T03:42:39;26.80;91.60
44047;DHT22;29713;-33.888;151.150;2023-05-01T03:45:07;26.50;91.60
44047;DHT22;29713;-33.888;151.150;2023-05-01T03:47:34;26.50;91.00
44047;DHT22;29713;-33.888;151.150;2023-05-01T03:50:02;26.40;91.40
44047;DHT22;29713;-33.888;151.150;2023-05-01T03:52:29;26.60;91.80
44047;DHT22;29713;-33.888;151.150;2023-05-01T03:54:56;27.00;91.50
44047;DHT22;29713;-33.888;151.150;2023-05-01T03:57:24;26.70;91.20
44047;DHT22;29713;-33.888;151.150;2023-05-01T03:59:53;26.80;92.40
44047;DHT22;29713;-33.888;151.150;2023-05-01T04:02:20;26.70;91.50
44047;DHT22;29713;-33.888;151.150;2023-05-01T04:04:50;26.90;92.10
44047;DHT22;29713;-33.888;151.150;2023-05-01T04:07:17;26.80;92.40
44047;DHT22;29713;-33.888;151.150;2023-05-01T04:09:45;26.60;92.00
44047;DHT22;29713;-33.888;151.150;2023-05-01T04:12:13;26.40;92.80
44047;DHT22;29713;-33.888;151.150;2023-05-01T04:14:41;26.40;92.50
44047;DHT22;29713;-33.888;151.150;2023-05-01T04:17:10;26.40;93.00
44047;DHT22;29713;-33.888;151.150;2023-05-01T04:19:37;26.50;92.60
44047;DHT22;29713;-33.888;151.150;2023-05-01T04:22:05;26.40;92.70
44047;DHT22;29713;-33.888;151.150;2023-05-01T04:24:35;26.30;92.80
44047;DHT22;29713;-33.888;151.150;2023-05-01T04:27:03;26.30;91.70
44047;DHT22;29713;-33.888;151.150;2023-05-01T04:29:31;25.90;91.90
44047;DHT22;29713;-33.888;151.150;2023-05-01T04:32:02;25.80;92.70
44047;DHT22;29713;-33.888;151.150;2023-05-01T04:34:29;25.80;92.40
44047;DHT22;29713;-33.888;151.150;2023-05-01T04:36:56;25.50;92.50
44047;DHT22;29713;-33.888;151.150;2023-05-01T04:39:24;25.30;93.40
44047;DHT22;29713;-33.888;151.150;2023-05-01T04:41:51;25.20;93.50
44047;DHT22;29713;-33.888;151.150;2023-05-01T04:44:18;25.00;93.00
44047;DHT22;29713;-33.888;151.150;2023-05-01T04:46:46;24.80;93.60
44047;DHT22;29713;-33.888;151.150;2023-05-01T04:49:13;25.00;94.80
44047;DHT22;29713;-33.888;151.150;2023-05-01T04:51:41;25.10;94.60
44047;DHT22;29713;-33.888;151.150;2023-05-01T04:54:09;25.10;94.10
44047;DHT22;29713;-33.888;151.150;2023-05-01T04:56:36;25.00;93.20
44047;DHT22;29713;-33.888;151.150;2023-05-01T04:59:03;25.10;94.00
44047;DHT22;29713;-33.888;151.150;2023-05-01T05:01:33;25.10;93.10
44047;DHT22;29713;-33.888;151.150;2023-05-01T05:04:04;24.70;92.70
44047;DHT22;29713;-33.888;151.150;2023-05-01T05:06:31;24.70;93.90
44047;DHT22;29713;-33.888;151.150;2023-05-01T05:08:58;24.60;93.40
44047;DHT22;29713;-33.888;151.150;2023-05-01T05:11:26;24.30;93.80
44047;DHT22;29713;-33.888;151.150;2023-05-01T05:13:53;24.20;94.60
44047;DHT22;29713;-33.888;151.150;2023-05-01T05:16:21;24.10;94.10
44047;DHT22;29713;-33.888;151.150;2023-05-01T05:18:48;23.90;94.10
44047;DHT22;29713;-33.888;151.150;2023-05-01T05:21:15;23.80;93.80
44047;DHT22;29713;-33.888;151.150;2023-05-01T05:23:43;23.50;93.90
44047;DHT22;29713;-33.888;151.150;2023-05-01T05:26:10;23.10;94.00
44047;DHT22;29713;-33.888;151.150;2023-05-01T05:28:38;22.90;95.50
44047;DHT22;29713;-33.888;151.150;2023-05-01T05:31:06;22.70;96.80
44047;DHT22;29713;-33.888;151.150;2023-05-01T05:33:37;22.40;97.70
44047;DHT22;29713;-33.888;151.150;2023-05-01T05:36:04;22.30;98.20
44047;DHT22;29713;-33.888;151.150;2023-05-01T05:38:32;22.20;98.80
44047;DHT22;29713;-33.888;151.150;2023-05-01T05:40:59;22.10;98.60
44047;DHT22;29713;-33.888;151.150;2023-05-01T05:43:27;22.00;98.80
44047;DHT22;29713;-33.888;151.150;2023-05-01T05:45:58;21.60;99.20
44047;DHT22;29713;-33.888;151.150;2023-05-01T05:48:26;21.50;99.70
44047;DHT22;29713;-33.888;151.150;2023-05-01T05:50:53;21.50;99.90
44047;DHT22;29713;-33.888;151.150;2023-05-01T05:53:22;21.40;99.90
44047;DHT22;29713;-33.888;151.150;2023-05-01T05:55:50;21.20;99.90
44047;DHT22;29713;-33.888;151.150;2023-05-01T05:58:17;21.00;99.90
44047;DHT22;29713;-33.888;151.150;2023-05-01T06:00:49;20.80;99.90
44047;DHT22;29713;-33.888;151.150;2023-05-01T06:03:18;20.70;99.90
44047;DHT22;29713;-33.888;151.150;2023-05-01T06:05:46;20.60;99.90
44047;DHT22;29713;-33.888;151.150;2023-05-01T06:08:13;20.50;99.90
44047;DHT22;29713;-33.888;151.150;2023-05-01T06:10:44;20.40;99.90
44047;DHT22;29713;-33.888;151.150;2023-05-01T06:13:12;20.30;99.90
44047;DHT22;29713;-33.888;151.150;2023-05-01T06:15:40;20.20;99.90
44047;DHT22;29713;-33.888;151.150;2023-05-01T06:18:08;20.10;99.90
44047;DHT22;29713;-33.888;151.150;2023-05-01T06:20:37;20.10;99.90
44047;DHT22;29713;-33.888;151.150;2023-05-01T06:23:04;20.10;99.90
44047;DHT22;29713;-33.888;151.150;2023-05-01T06:25:33;20.10;99.90
44047;DHT22;29713;-33.888;151.150;2023-05-01T06:28:01;20.10;99.90
44047;DHT22;29713;-33.888;151.150;2023-05-01T06:30:29;20.00;99.90
44047;DHT22;29713;-33.888;151.150;2023-05-01T06:32:57;20.00;99.90
44047;DHT22;29713;-33.888;151.150;2023-05-01T06:35:24;19.90;99.90
44047;DHT22;29713;-33.888;151.150;2023-05-01T06:37:52;20.00;99.90
44047;DHT22;29713;-33.888;151.150;2023-05-01T06:40:24;20.00;99.90
44047;DHT22;29713;-33.888;151.150;2023-05-01T06:42:52;20.00;99.90
44047;DHT22;29713;-33.888;151.150;2023-05-01T06:45:19;20.00;99.90
44047;DHT22;29713;-33.888;151.150;2023-05-01T06:47:46;19.90;99.90
44047;DHT22;29713;-33.888;151.150;2023-05-01T06:50:14;19.90;99.90
44047;DHT22;29713;-33.888;151.150;2023-05-01T06:52:42;19.90;99.90
44047;DHT22;29713;-33.888;151.150;2023-05-01T06:55:09;19.80;99.90
44047;DHT22;29713;-33.888;151.150;2023-05-01T06:57:38;19.80;99.90
44047;DHT22;29713;-33.888;151.150;2023-05-01T07:00:08;19.70;99.90
44047;DHT22;29713;-33.888;151.150;2023-05-01T07:02:36;19.70;99.90
44047;DHT22;29713;-33.888;151.150;2023-05-01T07:05:04;19.60;99.90
44047;DHT22;29713;-33.888;151.150;2023-05-01T07:07:31;19.60;99.90
44047;DHT22;29713;-33.888;151.150;2023-05-01T07:09:58;19.50;99.90
44047;DHT22;29713;-33.888;151.150;2023-05-01T07:12:25;19.40;99.90
44047;DHT22;29713;-33.888;151.150;2023-05-01T07:14:53;19.40;99.90
44047;DHT22;29713;-33.888;151.150;2023-05-01T07:17:20;19.30;99.90
44047;DHT22;29713;-33.888;151.150;2023-05-01T07:19:48;19.30;99.90
44047;DHT22;29713;-33.888;151.150;2023-05-01T07:22:15;19.20;99.90
44047;DHT22;29713;-33.888;151.150;2023-05-01T07:24:43;19.10;99.90
44047;DHT22;29713;-33.888;151.150;2023-05-01T07:27:10;19.10;99.90
44047;DHT22;29713;-33.888;151.150;2023-05-01T07:29:40;19.00;99.90
44047;DHT22;29713;-33.888;151.150;2023-05-01T07:32:08;19.00;99.90
44047;DHT22;29713;-33.888;151.150;2023-05-01T07:34:36;19.00;99.90
44047;DHT22;29713;-33.888;151.150;2023-05-01T07:37:03;18.90;99.90
44047;DHT22;29713;-33.888;151.150;2023-05-01T07:39:31;18.90;99.90
44047;DHT22;29713;-33.888;151.150;2023-05-01T07:41:58;18.80;99.90
44047;DHT22;29713;-33.888;151.150;2023-05-01T07:44:25;18.80;99.90
44047;DHT22;29713;-33.888;151.150;2023-05-01T07:46:53;18.80;99.90
44047;DHT22;29713;-33.888;151.150;2023-05-01T07:49:20;18.70;99.90
44047;DHT22;29713;-33.888;151.150;2023-05-01T07:51:48;18.60;99.90
44047;DHT22;29713;-33.888;151.150;2023-05-01T07:54:15;18.60;99.90
44047;DHT22;29713;-33.888;151.150;2023-05-01T07:56:47;18.50;99.90
44047;DHT22;29713;-33.888;151.150;2023-05-01T07:59:15;18.40;99.90
44047;DHT22;29713;-33.888;151.150;2023-05-01T08:01:42;18.30;99.90
44047;DHT22;29713;-33.888;151.150;2023-05-01T08:04:10;18.30;99.90
44047;DHT22;29713;-33.888;151.150;2023-05-01T08:06:37;18.20;99.90
44047;DHT22;29713;-33.888;151.150;2023-05-01T08:09:05;18.10;99.90
44047;DHT22;29713;-33.888;151.150;2023-05-01T08:11:32;18.00;99.90
44047;DHT22;29713;-33.888;151.150;2023-05-01T08:14:00;18.00;99.90
44047;DHT22;29713;-33.888;151.150;2023-05-01T08:16:27;18.00;99.90
44047;DHT22;29713;-33.888;151.150;2023-05-01T08:18:54;17.90;99.90
44047;DHT22;29713;-33.888;151.150;2023-05-01T08:21:22;17.90;99.90
44047;DHT22;29713;-33.888;151.150;2023-05-01T08:23:49;17.90;99.90
44047;DHT22;29713;-33.888;151.150;2023-05-01T08:26:17;17.80;99.90
44047;DHT22;29713;-33.888;151.150;2023-05-01T08:28:44;17.80;99.90
44047;DHT22;29713;-33.888;151.150;2023-05-01T08:31:12;17.80;99.90
44047;DHT22;29713;-33.888;151.150;2023-05-01T08:33:39;17.80;99.90
44047;DHT22;29713;-33.888;151.150;2023-05-01T08:36:09;17.80;99.90
44047;DHT22;29713;-33.888;151.150;2023-05-01T08:38:38;17.80;99.90
44047;DHT22;29713;-33.888;151.150;2023-05-01T08:41:06;17.80;99.90
44047;DHT22;29713;-33.888;151.150;2023-05-01T08:43:34;17.80;99.90
44047;DHT22;29713;-33.888;151.150;2023-05-01T08:46:06;17.80;99.90
44047;DHT22;29713;-33.888;151.150;2023-05-01T08:48:36;17.80;99.90
44047;DHT22;29713;-33.888;151.150;2023-05-01T08:51:05;17.70;99.90
44047;DHT22;29713;-33.888;151.150;2023-05-01T08:53:33;17.70;99.90
44047;DHT22;29713;-33.888;151.150;2023-05-01T08:56:05;17.70;99.90
44047;DHT22;29713;-33.888;151.150;2023-05-01T08:58:35;17.70;99.90
44047;DHT22;29713;-33.888;151.150;2023-05-01T09:01:03;17.70;99.90
44047;DHT22;29713;-33.888;151.150;2023-05-01T09:03:33;17.60;99.90
44047;DHT22;29713;-33.888;151.150;2023-05-01T09:06:02;17.50;99.90
44047;DHT22;29713;-33.888;151.150;2023-05-01T09:08:29;17.50;99.90
44047;DHT22;29713;-33.888;151.150;2023-05-01T09:10:58;17.40;99.90
44047;DHT22;29713;-33.888;151.150;2023-05-01T09:13:26;17.40;99.90
44047;DHT22;29713;-33.888;151.150;2023-05-01T09:15:53;17.40;99.90
44047;DHT22;29713;-33.888;151.150;2023-05-01T09:18:21;17.40;99.90
44047;DHT22;29713;-33.888;151.150;2023-05-01T09:20:49;17.30;99.90
44047;DHT22;29713;-33.888;151.150;2023-05-01T09:23:16;17.30;99.90
44047;DHT22;29713;-33.888;151.150;2023-05-01T09:25:45;17.20;99.90
44047;DHT22;29713;-33.888;151.150;2023-05-01T09:28:13;17.20;99.90
44047;DHT22;29713;-33.888;151.150;2023-05-01T09:30:41;17.20;99.90
44047;DHT22;29713;-33.888;151.150;2023-05-01T09:33:09;17.20;99.90
44047;DHT22;29713;-33.888;151.150;2023-05-01T09:35:53;17.20;99.90
44047;DHT22;29713;-33.888;151.150;2023-05-01T09:38:22;17.10;99.90
44047;DHT22;29713;-33.888;151.150;2023-05-01T09:40:52;17.10;99.90
44047;DHT22;29713;-33.888;151.150;2023-05-01T09:43:29;17.00;99.90
44047;DHT22;29713;-33.888;151.150;2023-05-01T09:46:09;17.00;99.90
44047;DHT22;29713;-33.888;151.150;2023-05-01T09:48:37;17.00;99.90
44047;DHT22;29713;-33.888;151.150;2023-05-01T09:53:56;16.90;99.90
44047;DHT22;29713;-33.888;151.150;2023-05-01T09:56:26;16.90;99.90
44047;DHT22;29713;-33.888;151.150;2023-05-01T09:58:54;16.90;99.90
44047;DHT22;29713;-33.888;151.150;2023-05-01T10:01:42;16.90;99.90
44047;DHT22;29713;-33.888;151.150;2023-05-01T10:04:11;16.80;99.90
44047;DHT22;29713;-33.888;151.150;2023-05-01T10:06:40;16.80;99.90
44047;DHT22;29713;-33.888;151.150;2023-05-01T10:09:08;16.80;99.90
44047;DHT22;29713;-33.888;151.150;2023-05-01T10:11:53;16.80;99.90
44047;DHT22;29713;-33.888;151.150;2023-05-01T10:14:24;16.70;99.90
44047;DHT22;29713;-33.888;151.150;2023-05-01T10:16:54;16.70;99.90
44047;DHT22;29713;-33.888;151.150;2023-05-01T10:19:23;16.60;99.90
44047;DHT22;29713;-33.888;151.150;2023-05-01T10:21:50;16.60;99.90
44047;DHT22;29713;-33.888;151.150;2023-05-01T10:24:19;16.50;99.90
44047;DHT22;29713;-33.888;151.150;2023-05-01T10:26:48;16.50;99.90
44047;DHT22;29713;-33.888;151.150;2023-05-01T10:29:18;16.40;99.90
44047;DHT22;29713;-33.888;151.150;2023-05-01T10:31:46;16.40;99.90
44047;DHT22;29713;-33.888;151.150;2023-05-01T10:34:17;16.30;99.90
44047;DHT22;29713;-33.888;151.150;2023-05-01T10:36:51;16.30;99.90
44047;DHT22;29713;-33.888;151.150;2023-05-01T10:39:34;16.30;99.90
44047;DHT22;29713;-33.888;151.150;2023-05-01T10:42:06;16.20;99.90
44047;DHT22;29713;-33.888;151.150;2023-05-01T10:44:37;16.20;99.90
44047;DHT22;29713;-33.888;151.150;2023-05-01T10:50:12;16.20;99.90
44047;DHT22;29713;-33.888;151.150;2023-05-01T10:55:41;16.10;99.90
44047;DHT22;29713;-33.888;151.150;2023-05-01T10:58:53;16.10;99.90
44047;DHT22;29713;-33.888;151.150;2023-05-01T11:01:37;16.10;99.90
44047;DHT22;29713;-33.888;151.150;2023-05-01T11:09:39;16.10;99.90
44047;DHT22;29713;-33.888;151.150;2023-05-01T11:12:12;16.00;99.90
44047;DHT22;29713;-33.888;151.150;2023-05-01T11:20:13;15.90;99.90
44047;DHT22;29713;-33.888;151.150;2023-05-01T11:23:00;15.90;99.90
44047;DHT22;29713;-33.888;151.150;2023-05-01T11:25:30;15.80;99.90
44047;DHT22;29713;-33.888;151.150;2023-05-01T11:28:03;15.80;99.90
44047;DHT22;29713;-33.888;151.150;2023-05-01T11:30:41;15.80;99.90
44047;DHT22;29713;-33.888;151.150;2023-05-01T11:33:08;15.80;99.90
44047;DHT22;29713;-33.888;151.150;2023-05-01T11:35:37;15.70;99.90
44047;DHT22;29713;-33.888;151.150;2023-05-01T11:38:04;15.80;99.90
44047;DHT22;29713;-33.888;151.150;2023-05-01T11:40:33;15.70;99.90
44047;DHT22;29713;-33.888;151.150;2023-05-01T11:43:05;15.70;99.90
44047;DHT22;29713;-33.888;151.150;2023-05-01T11:45:34;15.70;99.90
44047;DHT22;29713;-33.888;151.150;2023-05-01T11:48:01;15.60;99.90
44047;DHT22;29713;-33.888;151.150;2023-05-01T11:50:38;15.60;99.90
44047;DHT22;29713;-33.888;151.150;2023-05-01T11:53:12;15.60;99.90
44047;DHT22;29713;-33.888;151.150;2023-05-01T11:55:44;15.60;99.90
44047;DHT22;29713;-33.888;151.150;2023-05-01T11:58:12;15.50;99.90
44047;DHT22;29713;-33.888;151.150;2023-05-01T12:00:43;15.50;99.90
44047;DHT22;29713;-33.888;151.150;2023-05-01T12:03:14;15.40;99.90
44047;DHT22;29713;-33.888;151.150;2023-05-01T12:05:43;15.30;99.90
44047;DHT22;29713;-33.888;151.150;2023-05-01T12:08:22;15.30;99.90
44047;DHT22;29713;-33.888;151.150;2023-05-01T12:10:55;15.30;99.90
44047;DHT22;29713;-33.888;151.150;2023-05-01T12:13:23;15.20;99.90
44047;DHT22;29713;-33.888;151.150;2023-05-01T12:15:54;15.10;99.90
44047;DHT22;29713;-33.888;151.150;2023-05-01T12:18:21;15.20;99.90
44047;DHT22;29713;-33.888;151.150;2023-05-01T12:20:51;15.20;99.90
44047;DHT22;29713;-33.888;151.150;2023-05-01T12:23:29;15.20;99.90
44047;DHT22;29713;-33.888;151.150;2023-05-01T12:25:57;15.20;99.90
44047;DHT22;29713;-33.888;151.150;2023-05-01T12:28:24;15.20;99.90
44047;DHT22;29713;-33.888;151.150;2023-05-01T12:30:53;15.10;99.90
44047;DHT22;29713;-33.888;151.150;2023-05-01T12:33:26;15.10;99.90
44047;DHT22;29713;-33.888;151.150;2023-05-01T12:35:54;15.00;99.90
44047;DHT22;29713;-33.888;151.150;2023-05-01T12:38:23;14.90;99.90
44047;DHT22;29713;-33.888;151.150;2023-05-01T12:40:56;14.90;99.90
44047;DHT22;29713;-33.888;151.150;2023-05-01T12:43:32;14.90;99.90
44047;DHT22;29713;-33.888;151.150;2023-05-01T12:45:59;14.90;99.90
44047;DHT22;29713;-33.888;151.150;2023-05-01T12:48:28;14.90;99.90
44047;DHT22;29713;-33.888;151.150;2023-05-01T12:50:56;14.90;99.90
44047;DHT22;29713;-33.888;151.150;2023-05-01T12:53:25;14.80;99.90
44047;DHT22;29713;-33.888;151.150;2023-05-01T12:55:55;14.90;99.90
44047;DHT22;29713;-33.888;151.150;2023-05-01T12:58:33;14.80;99.90
44047;DHT22;29713;-33.888;151.150;2023-05-01T13:01:00;14.90;99.90
44047;DHT22;29713;-33.888;151.150;2023-05-01T13:03:29;14.80;99.90
44047;DHT22;29713;-33.888;151.150;2023-05-01T13:06:01;14.80;99.90
44047;DHT22;29713;-33.888;151.150;2023-05-01T13:08:35;14.70;99.90
44047;DHT22;29713;-33.888;151.150;2023-05-01T13:11:16;14.60;99.90
44047;DHT22;29713;-33.888;151.150;2023-05-01T13:13:47;14.60;99.90
44047;DHT22;29713;-33.888;151.150;2023-05-01T13:16:16;14.50;99.90
44047;DHT22;29713;-33.888;151.150;2023-05-01T13:18:45;14.50;99.90
44047;DHT22;29713;-33.888;151.150;2023-05-01T13:21:15;14.50;99.90
44047;DHT22;29713;-33.888;151.150;2023-05-01T13:23:54;14.50;99.90
44047;DHT22;29713;-33.888;151.150;2023-05-01T13:26:32;14.50;99.90
44047;DHT22;29713;-33.888;151.150;2023-05-01T13:29:02;14.50;99.90
44047;DHT22;29713;-33.888;151.150;2023-05-01T13:31:31;14.40;99.90
44047;DHT22;29713;-33.888;151.150;2023-05-01T13:33:59;14.50;99.90
44047;DHT22;29713;-33.888;151.150;2023-05-01T13:36:30;14.50;99.90
44047;DHT22;29713;-33.888;151.150;2023-05-01T13:39:00;14.50;99.90
44047;DHT22;29713;-33.888;151.150;2023-05-01T13:41:28;14.40;99.90
44047;DHT22;29713;-33.888;151.150;2023-05-01T13:43:56;14.40;99.90
44047;DHT22;29713;-33.888;151.150;2023-05-01T13:46:25;14.50;99.90
44047;DHT22;29713;-33.888;151.150;2023-05-01T13:48:53;14.50;99.90
44047;DHT22;29713;-33.888;151.150;2023-05-01T13:51:22;14.40;99.90
44047;DHT22;29713;-33.888;151.150;2023-05-01T13:53:50;14.40;99.90
44047;DHT22;29713;-33.888;151.150;2023-05-01T13:56:18;14.40;99.90
44047;DHT22;29713;-33.888;151.150;2023-05-01T13:58:47;14.40;99.90
44047;DHT22;29713;-33.888;151.150;2023-05-01T14:01:17;14.40;99.90
44047;DHT22;29713;-33.888;151.150;2023-05-01T14:03:44;14.30;99.90
44047;DHT22;29713;-33.888;151.150;2023-05-01T14:06:17;14.30;99.90
44047;DHT22;29713;-33.888;151.150;2023-05-01T14:08:46;14.30;99.90
44047;DHT22;29713;-33.888;151.150;2023-05-01T14:11:14;14.30;99.90
44047;DHT22;29713;-33.888;151.150;2023-05-01T14:13:43;14.40;99.90
44047;DHT22;29713;-33.888;151.150;2023-05-01T14:16:29;14.40;99.90
44047;DHT22;29713;-33.888;151.150;2023-05-01T14:18:57;14.30;99.90
44047;DHT22;29713;-33.888;151.150;2023-05-01T14:21:25;14.30;99.90
44047;DHT22;29713;-33.888;151.150;2023-05-01T14:23:56;14.30;99.90
44047;DHT22;29713;-33.888;151.150;2023-05-01T14:26:23;14.30;99.90
44047;DHT22;29713;-33.888;151.150;2023-05-01T14:28:51;14.30;99.90
44047;DHT22;29713;-33.888;151.150;2023-05-01T14:31:28;14.20;99.90
44047;DHT22;29713;-33.888;151.150;2023-05-01T14:33:57;14.20;99.90
44047;DHT22;29713;-33.888;151.150;2023-05-01T14:36:26;14.30;99.90
44047;DHT22;29713;-33.888;151.150;2023-05-01T14:38:59;14.30;99.90
44047;DHT22;29713;-33.888;151.150;2023-05-01T14:41:27;14.30;99.90
44047;DHT22;29713;-33.888;151.150;2023-05-01T14:43:55;14.30;99.90
44047;DHT22;29713;-33.888;151.150;2023-05-01T14:46:34;14.30;99.90
44047;DHT22;29713;-33.888;151.150;2023-05-01T14:49:02;14.20;99.90
44047;DHT22;29713;-33.888;151.150;2023-05-01T14:51:30;14.30;99.90
44047;DHT22;29713;-33.888;151.150;2023-05-01T14:53:57;14.30;99.90
44047;DHT22;29713;-33.888;151.150;2023-05-01T14:56:25;14.20;99.90
44047;DHT22;29713;-33.888;151.150;2023-05-01T14:58:53;14.30;99.90
44047;DHT22;29713;-33.888;151.150;2023-05-01T15:01:20;14.30;99.90
44047;DHT22;29713;-33.888;151.150;2023-05-01T15:03:47;14.30;99.90
44047;DHT22;29713;-33.888;151.150;2023-05-01T15:06:15;14.30;99.90
44047;DHT22;29713;-33.888;151.150;2023-05-01T15:08:42;14.20;99.90
44047;DHT22;29713;-33.888;151.150;2023-05-01T15:11:11;14.10;99.90
44047;DHT22;29713;-33.888;151.150;2023-05-01T15:13:39;14.10;99.90
44047;DHT22;29713;-33.888;151.150;2023-05-01T15:16:08;14.10;99.90
44047;DHT22;29713;-33.888;151.150;2023-05-01T15:18:38;14.10;99.90
44047;DHT22;29713;-33.888;151.150;2023-05-01T15:21:06;14.00;99.90
44047;DHT22;29713;-33.888;151.150;2023-05-01T15:23:33;14.10;99.90
44047;DHT22;29713;-33.888;151.150;2023-05-01T15:26:02;14.00;99.90
44047;DHT22;29713;-33.888;151.150;2023-05-01T15:28:30;14.00;99.90
44047;DHT22;29713;-33.888;151.150;2023-05-01T15:30:58;14.00;99.90
44047;DHT22;29713;-33.888;151.150;2023-05-01T15:33:25;14.00;99.90
44047;DHT22;29713;-33.888;151.150;2023-05-01T15:35:52;14.00;99.90
44047;DHT22;29713;-33.888;151.150;2023-05-01T15:38:20;13.90;99.90